createdAt,value
2022-10-11T00:01:30.998Z,1.67
2022-10-11T00:03:57.881Z,1.55
2022-10-11T00:06:24.751Z,1.45
2022-10-11T00:08:51.530Z,1.55
2022-10-11T00:11:18.522Z,1.55
2022-10-11T00:13:45.363Z,1.30
2022-10-11T00:16:13.062Z,1.20
2022-10-11T00:18:40.006Z,1.50
2022-10-11T00:21:12.967Z,1.33
2022-10-11T00:23:40.425Z,1.38
2022-10-11T00:26:09.492Z,1.40
2022-10-11T00:28:37.310Z,1.30
2022-10-11T00:31:08.070Z,1.35
2022-10-11T00:33:35.289Z,1.33
2022-10-11T00:36:02.904Z,1.60
2022-10-11T00:38:31.857Z,1.30
2022-10-11T00:40:59.667Z,1.30
2022-10-11T00:43:28.767Z,1.55
2022-10-11T00:46:06.139Z,1.30
2022-10-11T00:48:57.540Z,1.25
2022-10-11T00:51:48.694Z,1.38
2022-10-11T00:54:17.795Z,1.40
2022-10-11T00:56:49.434Z,1.63
2022-10-11T00:59:22.895Z,1.38
2022-10-11T01:01:49.984Z,1.50
2022-10-11T01:04:16.863Z,1.40
2022-10-11T01:06:44.124Z,1.52
2022-10-11T01:09:11.253Z,1.67
2022-10-11T01:11:39.824Z,1.50
2022-10-11T01:14:46.133Z,1.27
2022-10-11T01:17:22.223Z,1.70
2022-10-11T01:20:37.293Z,1.50
2022-10-11T01:23:44.034Z,1.55
2022-10-11T01:26:58.398Z,1.45
2022-10-11T01:30:10.059Z,1.70
2022-10-11T01:32:54.546Z,1.80
2022-10-11T01:35:41.121Z,1.50
2022-10-11T01:38:48.517Z,1.98
2022-10-11T01:41:23.099Z,1.30
2022-10-11T01:43:51.259Z,1.58
2022-10-11T01:46:19.605Z,1.92
2022-10-11T01:48:54.422Z,1.60
2022-10-11T01:51:23.934Z,1.50
2022-10-11T01:54:10.201Z,1.83
2022-10-11T01:57:28.290Z,1.50
2022-10-11T02:00:16.671Z,1.88
2022-10-11T02:03:32.102Z,1.90
2022-10-11T02:06:09.167Z,2.45
2022-10-11T02:09:04.484Z,1.50
2022-10-11T02:11:35.477Z,2.00
2022-10-11T02:14:32.508Z,1.65
2022-10-11T02:17:04.765Z,1.70
2022-10-11T02:19:36.216Z,1.95
2022-10-11T02:22:06.599Z,1.90
2022-10-11T02:24:35.729Z,1.60
2022-10-11T02:27:04.560Z,1.50
2022-10-11T02:29:34.851Z,1.77
2022-10-11T02:32:03.082Z,1.67
2022-10-11T02:34:48.693Z,1.50
2022-10-11T02:37:41.352Z,1.40
2022-10-11T02:40:21.312Z,1.52
2022-10-11T02:42:59.840Z,1.77
2022-10-11T02:45:31.865Z,1.27
2022-10-11T02:47:59.068Z,1.42
2022-10-11T02:50:27.229Z,1.55
2022-10-11T02:52:54.007Z,1.60
2022-10-11T02:55:20.933Z,1.80
2022-10-11T02:57:47.841Z,1.73
2022-10-11T03:00:15.475Z,1.60
2022-10-11T03:02:42.377Z,1.63
2022-10-11T03:05:09.348Z,2.00
2022-10-11T03:07:36.314Z,1.70
2022-10-11T03:10:04.571Z,1.90
2022-10-11T03:12:31.661Z,1.85
2022-10-11T03:14:58.764Z,1.73
2022-10-11T03:17:38.207Z,1.38
2022-10-11T03:20:06.137Z,1.60
2022-10-11T03:22:33.054Z,1.70
2022-10-11T03:25:04.076Z,1.63
2022-10-11T03:27:32.653Z,1.30
2022-10-11T03:29:59.630Z,1.77
2022-10-11T03:32:26.613Z,1.67
2022-10-11T03:34:53.424Z,1.63
2022-10-11T03:37:20.443Z,1.60
2022-10-11T03:39:47.214Z,1.40
2022-10-11T03:42:14.477Z,1.83
2022-10-11T03:44:42.427Z,1.70
2022-10-11T03:47:09.342Z,1.50
2022-10-11T03:49:41.201Z,1.38
2022-10-11T03:52:10.487Z,1.10
2022-10-11T03:54:37.307Z,1.50
2022-10-11T03:57:04.224Z,1.30
2022-10-11T03:59:31.526Z,1.67
2022-10-11T04:01:58.440Z,1.52
2022-10-11T04:04:25.205Z,1.80
2022-10-11T04:06:52.087Z,1.60
2022-10-11T04:09:18.888Z,1.95
2022-10-11T04:11:45.839Z,2.10
2022-10-11T04:14:12.684Z,1.63
2022-10-11T04:16:40.351Z,2.03
2022-10-11T04:19:07.625Z,1.67
2022-10-11T04:21:34.562Z,2.08
2022-10-11T04:24:01.318Z,1.80
2022-10-11T04:26:28.114Z,1.80
2022-10-11T04:28:55.059Z,1.58
2022-10-11T04:31:21.932Z,1.48
2022-10-11T04:33:48.706Z,1.90
2022-10-11T04:36:15.758Z,1.80
2022-10-11T04:38:42.836Z,1.60
2022-10-11T04:41:11.596Z,1.85
2022-10-11T04:43:38.588Z,1.83
2022-10-11T04:46:06.258Z,2.47
2022-10-11T04:48:33.763Z,1.85
2022-10-11T04:51:00.928Z,1.85
2022-10-11T04:53:27.756Z,2.28
2022-10-11T04:56:01.642Z,2.10
2022-10-11T04:58:29.862Z,1.90
2022-10-11T05:00:57.459Z,1.88
2022-10-11T05:03:25.330Z,2.08
2022-10-11T05:05:53.115Z,1.83
2022-10-11T05:08:20.323Z,1.92
2022-10-11T05:11:01.953Z,1.92
2022-10-11T05:13:29.551Z,1.73
2022-10-11T05:15:56.571Z,2.17
2022-10-11T05:18:24.015Z,2.10
2022-10-11T05:21:02.180Z,1.88
2022-10-11T05:23:29.866Z,1.77
2022-10-11T05:25:56.830Z,2.08
2022-10-11T05:28:23.692Z,1.75
2022-10-11T05:30:50.668Z,2.28
2022-10-11T05:33:17.408Z,2.38
2022-10-11T05:35:44.661Z,1.83
2022-10-11T05:38:11.529Z,2.38
2022-10-11T05:40:39.381Z,2.30
2022-10-11T05:43:06.558Z,2.40
2022-10-11T05:45:40.398Z,3.40
2022-10-11T05:48:08.072Z,3.63
2022-10-11T05:50:35.765Z,4.05
2022-10-11T05:53:02.628Z,3.85
2022-10-11T05:55:29.378Z,3.90
2022-10-11T05:57:57.369Z,4.30
2022-10-11T06:00:24.610Z,3.08
2022-10-11T06:02:51.272Z,3.20
2022-10-11T06:05:18.464Z,2.95
2022-10-11T06:07:45.246Z,3.25
2022-10-11T06:10:12.508Z,4.07
2022-10-11T06:12:39.523Z,3.75
2022-10-11T06:15:07.669Z,2.65
2022-10-11T06:17:34.873Z,3.08
2022-10-11T06:20:02.080Z,3.50
2022-10-11T06:22:28.932Z,3.22
2022-10-11T06:24:55.760Z,2.65
2022-10-11T06:27:22.491Z,2.83
2022-10-11T06:29:49.429Z,3.00
2022-10-11T06:32:16.392Z,3.78
2022-10-11T06:34:43.202Z,4.55
2022-10-11T06:37:10.065Z,4.10
2022-10-11T06:39:36.876Z,3.90
2022-10-11T06:42:03.803Z,4.10
2022-10-11T06:44:30.792Z,5.90
2022-10-11T06:46:57.526Z,8.27
2022-10-11T06:49:24.542Z,8.85
2022-10-11T06:51:51.455Z,7.57
2022-10-11T06:54:18.347Z,8.05
2022-10-11T06:56:45.917Z,8.15
2022-10-11T06:59:13.608Z,8.68
2022-10-11T07:01:40.672Z,7.90
2022-10-11T07:04:08.342Z,7.43
2022-10-11T07:06:40.152Z,8.00
2022-10-11T07:09:07.659Z,3.90
2022-10-11T07:11:34.471Z,1.67
2022-10-11T07:14:07.994Z,1.67
2022-10-11T07:16:36.653Z,2.40
2022-10-11T07:19:05.015Z,3.50
2022-10-11T07:21:32.929Z,3.28
2022-10-11T07:24:00.345Z,2.92
2022-10-11T07:26:28.207Z,3.58
2022-10-11T07:28:55.165Z,3.55
2022-10-11T07:31:25.132Z,4.20
2022-10-11T07:33:52.354Z,4.30
2022-10-11T07:36:19.362Z,4.72
2022-10-11T07:38:47.168Z,4.65
2022-10-11T07:41:14.271Z,4.60
2022-10-11T07:43:43.500Z,4.32
2022-10-11T07:46:11.453Z,2.97
2022-10-11T07:48:38.779Z,3.00
2022-10-11T07:51:14.131Z,2.72
2022-10-11T07:53:46.506Z,3.33
2022-10-11T07:56:16.140Z,3.15
2022-10-11T07:58:43.261Z,3.70
2022-10-11T08:01:11.555Z,4.40
2022-10-11T08:03:38.851Z,2.97
2022-10-11T08:06:08.508Z,3.35
2022-10-11T08:08:36.654Z,3.75
2022-10-11T08:11:03.785Z,3.15
2022-10-11T08:13:30.622Z,2.97
2022-10-11T08:15:57.978Z,3.13
2022-10-11T08:18:24.976Z,3.83
2022-10-11T08:20:52.102Z,3.55
2022-10-11T08:23:19.894Z,3.08
2022-10-11T08:25:47.819Z,3.50
2022-10-11T08:28:18.136Z,3.30
2022-10-11T08:30:53.269Z,4.50
2022-10-11T08:33:21.850Z,3.25
2022-10-11T08:35:49.552Z,2.63
2022-10-11T08:38:17.087Z,3.33
2022-10-11T08:40:52.851Z,2.50
2022-10-11T08:43:32.496Z,2.90
2022-10-11T08:46:01.395Z,3.70
2022-10-11T08:48:39.118Z,2.78
2022-10-11T08:51:14.075Z,2.67
2022-10-11T08:53:53.147Z,2.72
2022-10-11T08:56:20.972Z,2.20
2022-10-11T08:58:55.883Z,2.35
2022-10-11T09:01:25.892Z,2.45
2022-10-11T09:03:53.153Z,2.92
2022-10-11T09:07:02.617Z,2.15
2022-10-11T09:10:01.330Z,2.85
2022-10-11T09:12:40.964Z,2.78
2022-10-11T09:15:29.308Z,2.30
2022-10-11T09:18:31.476Z,2.33
2022-10-11T09:21:23.476Z,2.40
2022-10-11T09:24:08.667Z,2.28
2022-10-11T09:26:40.526Z,2.45
2022-10-11T09:29:56.732Z,2.83
2022-10-11T09:32:27.692Z,1.58
2022-10-11T09:35:09.428Z,2.08
2022-10-11T09:37:43.013Z,2.00
2022-10-11T09:40:22.769Z,2.17
2022-10-11T09:42:49.550Z,1.80
2022-10-11T09:45:21.265Z,1.63
2022-10-11T09:47:50.051Z,1.73
2022-10-11T09:50:20.267Z,1.90
2022-10-11T09:52:58.234Z,1.70
2022-10-11T09:55:40.954Z,3.78
2022-10-11T09:58:27.161Z,1.98
2022-10-11T10:01:08.001Z,1.67
2022-10-11T10:03:40.693Z,2.15
2022-10-11T10:06:23.424Z,2.00
2022-10-11T10:08:50.903Z,1.48
2022-10-11T10:11:18.937Z,1.58
2022-10-11T10:13:50.086Z,1.77
2022-10-11T10:16:31.787Z,1.52
2022-10-11T10:18:58.786Z,1.60
2022-10-11T10:21:37.286Z,1.48
2022-10-11T10:24:20.149Z,1.52
2022-10-11T10:27:21.192Z,1.50
2022-10-11T10:30:17.077Z,1.40
2022-10-11T10:32:57.367Z,1.38
2022-10-11T10:36:10.681Z,1.17
2022-10-11T10:38:52.325Z,1.80
2022-10-11T10:41:19.375Z,1.02
2022-10-11T10:43:53.760Z,1.33
2022-10-11T10:46:58.354Z,1.42
2022-10-11T10:50:06.650Z,1.20
2022-10-11T10:53:21.852Z,1.92
2022-10-11T10:55:54.191Z,1.23
2022-10-11T10:58:42.412Z,1.50
2022-10-11T11:01:14.851Z,1.48
2022-10-11T11:04:21.840Z,1.23
2022-10-11T11:06:58.078Z,1.38
2022-10-11T11:09:40.663Z,1.20
2022-10-11T11:12:32.166Z,1.40
2022-10-11T11:15:24.718Z,1.10
2022-10-11T11:18:38.068Z,1.15
2022-10-11T11:24:47.906Z,1.33
2022-10-11T11:27:44.695Z,1.50
2022-10-11T11:30:53.327Z,1.40
2022-10-11T11:33:58.597Z,1.40
2022-10-11T11:37:02.715Z,1.20
2022-10-11T11:39:54.735Z,0.93
2022-10-11T11:42:36.430Z,1.30
2022-10-11T11:45:12.584Z,1.20
2022-10-11T11:47:42.441Z,1.20
2022-10-11T11:50:25.356Z,1.08
2022-10-11T11:52:55.133Z,1.60
2022-10-11T11:55:32.519Z,1.17
2022-10-11T11:58:11.425Z,1.02
2022-10-11T12:00:55.381Z,1.30
2022-10-11T12:03:27.322Z,1.50
2022-10-11T12:06:33.125Z,1.52
2022-10-11T12:09:09.973Z,1.40
2022-10-11T12:11:51.727Z,0.88
2022-10-11T12:14:40.203Z,1.60
2022-10-11T12:17:22.545Z,0.90
2022-10-11T12:20:12.970Z,1.05
2022-10-11T12:23:01.098Z,1.05
2022-10-11T12:25:41.148Z,1.27
2022-10-11T12:28:37.602Z,1.10
2022-10-11T12:31:07.902Z,1.27
2022-10-11T12:33:55.251Z,1.25
2022-10-11T12:36:43.706Z,1.20
2022-10-11T12:39:43.743Z,0.90
2022-10-11T12:42:32.684Z,1.10
2022-10-11T12:45:14.577Z,1.20
2022-10-11T12:48:22.012Z,1.00
2022-10-11T12:51:32.940Z,0.80
2022-10-11T12:54:37.640Z,1.30
2022-10-11T12:57:25.877Z,0.90
2022-10-11T12:59:53.121Z,0.93
2022-10-11T13:02:43.110Z,1.00
2022-10-11T13:05:45.251Z,0.90
2022-10-11T13:08:26.591Z,1.20
2022-10-11T13:10:54.068Z,1.20
2022-10-11T13:13:30.115Z,1.00
2022-10-11T13:15:58.293Z,1.30
2022-10-11T13:18:26.537Z,1.42
2022-10-11T13:20:53.582Z,1.10
2022-10-11T13:23:36.330Z,1.00
2022-10-11T13:26:03.639Z,0.93
2022-10-11T13:28:35.576Z,1.40
2022-10-11T13:31:05.041Z,1.20
2022-10-11T13:33:35.284Z,1.90
2022-10-11T13:36:05.009Z,2.47
2022-10-11T13:38:37.052Z,2.00
2022-10-11T13:41:06.721Z,0.98
2022-10-11T13:43:34.893Z,1.00
2022-10-11T13:46:05.485Z,1.50
2022-10-11T13:48:34.849Z,1.25
2022-10-11T13:51:09.641Z,1.10
2022-10-11T13:53:37.597Z,1.13
2022-10-11T13:56:08.238Z,1.10
2022-10-11T13:58:40.792Z,1.27
2022-10-11T14:01:40.762Z,0.90
2022-10-11T14:04:10.395Z,1.23
2022-10-11T14:06:49.153Z,1.13
2022-10-11T14:09:37.399Z,1.15
2022-10-11T14:12:40.465Z,1.23
2022-10-11T14:15:24.732Z,0.93
2022-10-11T14:20:27.287Z,1.20
2022-10-11T14:22:56.494Z,1.02
2022-10-11T14:25:23.264Z,1.38
2022-10-11T14:27:51.228Z,1.23
2022-10-11T14:30:27.412Z,1.20
2022-10-11T14:32:57.307Z,2.33
2022-10-11T14:35:28.874Z,1.30
2022-10-11T14:37:55.789Z,1.20
2022-10-11T14:40:26.278Z,1.10
2022-10-11T14:42:53.330Z,1.20
2022-10-11T14:45:21.551Z,1.48
2022-10-11T14:47:49.188Z,1.67
2022-10-11T14:50:35.714Z,1.35
2022-10-11T14:53:04.276Z,2.90
2022-10-11T14:55:31.619Z,1.70
2022-10-11T14:57:59.107Z,1.10
2022-10-11T15:00:28.606Z,1.30
2022-10-11T15:02:55.849Z,1.80
2022-10-11T15:05:28.685Z,1.80
2022-10-11T15:07:58.331Z,1.48
2022-10-11T15:10:30.592Z,1.73
2022-10-11T15:12:58.272Z,2.47
2022-10-11T15:15:26.832Z,2.10
2022-10-11T15:17:56.024Z,2.80
2022-10-11T15:20:35.547Z,1.73
2022-10-11T15:23:03.900Z,1.88
2022-10-11T15:25:31.189Z,2.53
2022-10-11T15:27:58.099Z,3.40
2022-10-11T15:30:30.247Z,1.92
2022-10-11T15:32:57.082Z,1.52
2022-10-11T15:35:26.074Z,1.35
2022-10-11T15:37:55.784Z,1.50
2022-10-11T15:40:26.915Z,1.60
2022-10-11T15:42:54.940Z,2.05
2022-10-11T15:45:23.400Z,1.92
2022-10-11T15:47:50.634Z,1.58
2022-10-11T15:50:37.888Z,1.80
2022-10-11T15:53:28.627Z,1.20
2022-10-11T15:55:57.682Z,1.20
2022-10-11T15:58:36.038Z,1.20
2022-10-11T16:01:09.093Z,1.20
2022-10-11T16:03:36.149Z,1.30
2022-10-11T16:06:05.540Z,1.10
2022-10-11T16:08:34.013Z,1.55
2022-10-11T16:11:01.960Z,1.20
2022-10-11T16:13:28.743Z,1.13
2022-10-11T16:15:55.962Z,1.42
2022-10-11T16:18:24.103Z,1.35
2022-10-11T16:20:52.070Z,1.70
2022-10-11T16:23:21.371Z,1.30
2022-10-11T16:25:59.758Z,1.40
2022-10-11T16:28:27.815Z,1.25
2022-10-11T16:30:55.578Z,1.67
2022-10-11T16:33:23.347Z,1.58
2022-10-11T16:35:51.363Z,1.30
2022-10-11T16:38:18.352Z,1.17
2022-10-11T16:40:45.017Z,1.95
2022-10-11T16:43:11.908Z,1.60
2022-10-11T16:45:39.284Z,2.47
2022-10-11T16:48:06.722Z,2.60
2022-10-11T16:50:39.063Z,2.03
2022-10-11T16:53:06.772Z,2.33
2022-10-11T16:55:33.504Z,2.03
2022-10-11T16:58:00.605Z,1.80
2022-10-11T17:00:27.552Z,2.65
2022-10-11T17:02:54.963Z,4.80
2022-10-11T17:05:23.224Z,8.35
2022-10-11T17:07:50.094Z,7.50
2022-10-11T17:10:18.083Z,5.90
2022-10-11T17:12:49.902Z,4.40
2022-10-11T17:15:17.081Z,1.50
2022-10-11T17:17:44.794Z,1.73
2022-10-11T17:20:11.663Z,1.80
2022-10-11T17:22:38.709Z,3.00
2022-10-11T17:25:06.094Z,5.43
2022-10-11T17:27:33.980Z,2.45
2022-10-11T17:30:03.069Z,1.65
2022-10-11T17:32:30.606Z,1.55
2022-10-11T17:34:59.546Z,1.52
2022-10-11T17:37:28.259Z,1.20
2022-10-11T17:39:56.075Z,1.40
2022-10-11T17:42:23.061Z,1.33
2022-10-11T17:44:50.619Z,1.50
2022-10-11T17:47:17.796Z,1.50
2022-10-11T17:49:44.613Z,1.40
2022-10-11T17:52:11.538Z,1.40
2022-10-11T17:54:39.226Z,1.15
2022-10-11T17:57:06.160Z,1.30
2022-10-11T17:59:33.226Z,1.50
2022-10-11T18:02:00.188Z,1.50
2022-10-11T18:04:30.202Z,1.35
2022-10-11T18:06:57.089Z,3.10
2022-10-11T18:09:24.872Z,3.17
2022-10-11T18:11:51.981Z,2.90
2022-10-11T18:14:19.171Z,3.72
2022-10-11T18:16:46.113Z,3.95
2022-10-11T18:19:13.841Z,2.78
2022-10-11T18:21:41.451Z,3.35
2022-10-11T18:24:15.194Z,2.70
2022-10-11T18:26:43.348Z,2.10
2022-10-11T18:29:11.444Z,1.92
2022-10-11T18:31:38.544Z,2.58
2022-10-11T18:34:08.608Z,3.13
2022-10-11T18:36:35.757Z,4.18
2022-10-11T18:39:05.546Z,4.00
2022-10-11T18:41:33.449Z,4.18
2022-10-11T18:44:02.236Z,3.75
2022-10-11T18:46:30.448Z,3.92
2022-10-11T18:48:58.874Z,3.90
2022-10-11T18:51:32.144Z,3.70
2022-10-11T18:53:59.413Z,3.42
2022-10-11T18:56:27.689Z,2.80
2022-10-11T18:58:57.001Z,3.70
2022-10-11T19:01:29.399Z,3.47
2022-10-11T19:03:57.895Z,3.25
2022-10-11T19:06:49.115Z,3.50
2022-10-11T19:09:24.699Z,3.65
2022-10-11T19:11:53.656Z,3.75
2022-10-11T19:14:23.254Z,4.20
2022-10-11T19:16:51.784Z,3.90
2022-10-11T19:19:21.025Z,3.38
2022-10-11T19:21:49.181Z,2.95
2022-10-11T19:24:18.168Z,2.22
2022-10-11T19:26:45.211Z,3.10
2022-10-11T19:29:20.802Z,2.20
2022-10-11T19:31:50.745Z,2.28
2022-10-11T19:34:18.735Z,2.30
2022-10-11T19:36:45.591Z,2.22
2022-10-11T19:39:14.285Z,1.90
2022-10-11T19:41:41.843Z,1.73
2022-10-11T19:44:09.547Z,1.80
2022-10-11T19:46:52.956Z,1.10
2022-10-11T19:49:25.430Z,1.60
2022-10-11T19:51:56.020Z,1.60
2022-10-11T19:54:23.404Z,2.25
2022-10-11T19:56:50.303Z,1.60
2022-10-11T19:59:17.323Z,2.03
2022-10-11T20:01:49.405Z,2.40
2022-10-11T20:04:47.194Z,2.00
2022-10-11T20:07:05.805Z,2.50
2022-10-11T20:09:32.545Z,2.75
2022-10-11T20:12:00.242Z,2.95
2022-10-11T20:14:27.146Z,2.13
2022-10-11T20:16:54.155Z,2.45
2022-10-11T20:19:25.006Z,2.42
2022-10-11T20:21:53.647Z,2.03
2022-10-11T20:24:20.732Z,2.00
2022-10-11T20:26:48.403Z,2.10
2022-10-11T20:29:15.228Z,2.00
2022-10-11T20:31:43.031Z,1.92
2022-10-11T20:34:09.947Z,1.95
2022-10-11T20:36:36.884Z,2.17
2022-10-11T20:39:05.072Z,2.00
2022-10-11T20:41:34.973Z,1.75
2022-10-11T20:44:03.033Z,2.00
2022-10-11T20:46:31.708Z,2.20
2022-10-11T20:49:04.356Z,2.25
2022-10-11T20:51:33.161Z,2.03
2022-10-11T20:54:01.113Z,2.15
2022-10-11T20:56:29.984Z,2.60
2022-10-11T20:58:58.054Z,2.90
2022-10-11T21:01:45.171Z,2.60
2022-10-11T21:04:18.767Z,3.33
2022-10-11T21:06:45.989Z,2.55
2022-10-11T21:09:15.587Z,3.10
2022-10-11T21:11:43.718Z,4.22
2022-10-11T21:14:10.551Z,4.55
2022-10-11T21:16:39.064Z,4.68
2022-10-11T21:19:06.722Z,5.30
2022-10-11T21:21:33.502Z,6.35
2022-10-11T21:24:02.081Z,6.97
2022-10-11T21:26:30.665Z,4.38
2022-10-11T21:28:59.783Z,3.00
2022-10-11T21:31:29.733Z,2.95
2022-10-11T21:34:00.310Z,3.22
2022-10-11T21:36:27.113Z,3.10
2022-10-11T21:38:54.341Z,3.45
2022-10-11T21:41:23.807Z,3.60
2022-10-11T21:43:50.674Z,3.03
2022-10-11T21:46:22.917Z,3.22
2022-10-11T21:48:51.322Z,2.90
2022-10-11T21:51:23.213Z,2.97
2022-10-11T21:53:50.071Z,3.47
2022-10-11T21:56:17.005Z,3.78
2022-10-11T21:58:47.225Z,3.58
2022-10-11T22:01:14.918Z,3.53
2022-10-11T22:03:42.089Z,3.30
2022-10-11T22:06:09.151Z,2.60
2022-10-11T22:08:36.563Z,2.67
2022-10-11T22:11:03.528Z,2.58
2022-10-11T22:13:31.569Z,3.42
2022-10-11T22:16:08.712Z,2.72
2022-10-11T22:18:35.539Z,2.72
2022-10-11T22:21:08.343Z,2.53
2022-10-11T22:23:35.762Z,2.40
2022-10-11T22:26:08.001Z,2.25
2022-10-11T22:28:35.293Z,2.60
2022-10-11T22:31:02.217Z,2.95
2022-10-11T22:33:28.980Z,3.25
2022-10-11T22:35:57.684Z,3.45
2022-10-11T22:38:25.259Z,3.60
2022-10-11T22:40:52.588Z,3.42
2022-10-11T22:43:20.105Z,3.10
2022-10-11T22:45:47.132Z,3.15
2022-10-11T22:48:14.492Z,3.72
2022-10-11T22:50:41.644Z,3.38
2022-10-11T22:53:09.151Z,3.80
2022-10-11T22:55:36.019Z,4.45
2022-10-11T22:58:05.324Z,4.03
2022-10-11T23:00:34.756Z,3.80
2022-10-11T23:03:02.415Z,3.33
2022-10-11T23:05:29.467Z,3.35
2022-10-11T23:07:56.219Z,2.58
2022-10-11T23:10:23.007Z,2.80
2022-10-11T23:12:50.298Z,2.92
2022-10-11T23:15:17.159Z,3.00
2022-10-11T23:17:44.641Z,3.20
2022-10-11T23:20:11.991Z,3.38
2022-10-11T23:22:38.968Z,3.35
2022-10-11T23:25:07.099Z,3.08
2022-10-11T23:27:33.892Z,4.80
2022-10-11T23:30:00.820Z,2.83
2022-10-11T23:32:27.505Z,3.00
2022-10-11T23:34:54.346Z,2.80
2022-10-11T23:37:21.285Z,2.60
2022-10-11T23:39:48.498Z,2.40
2022-10-11T23:42:15.181Z,2.20
2022-10-11T23:44:42.082Z,1.90
2022-10-11T23:47:09.020Z,2.13
2022-10-11T23:49:36.238Z,1.77
2022-10-11T23:52:02.952Z,2.10
2022-10-11T23:54:29.760Z,1.77
2022-10-11T23:56:57.385Z,1.83
2022-10-11T23:59:24.214Z,1.95
